createdAt,value
2023-03-16T00:01:58.936Z,7.20
2023-03-16T00:04:39.450Z,6.13
2023-03-16T00:07:23.960Z,7.78
2023-03-16T00:10:07.741Z,6.82
2023-03-16T00:12:48.640Z,7.03
2023-03-16T00:15:19.411Z,6.10
2023-03-16T00:17:48.913Z,6.25
2023-03-16T00:20:18.551Z,6.13
2023-03-16T00:22:46.996Z,6.70
2023-03-16T00:25:15.053Z,6.93
2023-03-16T00:27:51.696Z,5.85
2023-03-16T00:30:20.000Z,5.50
2023-03-16T00:32:47.703Z,6.65
2023-03-16T00:35:18.466Z,5.90
2023-03-16T00:37:47.634Z,5.45
2023-03-16T00:40:17.109Z,5.38
2023-03-16T00:43:11.996Z,5.50
2023-03-16T00:45:45.687Z,4.88
2023-03-16T00:48:13.898Z,4.65
2023-03-16T00:50:43.320Z,5.82
2023-03-16T00:53:12.112Z,5.00
2023-03-16T00:56:09.733Z,5.05
2023-03-16T00:58:39.734Z,4.72
2023-03-16T01:01:19.310Z,4.85
2023-03-16T01:03:50.267Z,4.65
2023-03-16T01:06:20.813Z,4.32
2023-03-16T01:08:53.967Z,5.07
2023-03-16T01:11:23.226Z,4.50
2023-03-16T01:13:54.515Z,6.00
2023-03-16T01:16:24.695Z,5.13
2023-03-16T01:18:53.972Z,4.60
2023-03-16T01:21:22.237Z,5.07
2023-03-16T01:23:55.738Z,4.60
2023-03-16T01:26:34.877Z,4.63
2023-03-16T01:29:29.651Z,5.05
2023-03-16T01:32:16.693Z,5.43
2023-03-16T01:34:50.176Z,4.78
2023-03-16T01:37:29.142Z,5.57
2023-03-16T01:40:23.231Z,5.38
2023-03-16T01:43:12.055Z,5.50
2023-03-16T01:46:19.781Z,5.88
2023-03-16T01:49:14.851Z,5.25
2023-03-16T01:51:52.936Z,5.40
2023-03-16T01:54:32.678Z,5.70
2023-03-16T01:57:12.970Z,5.38
2023-03-16T02:03:22.734Z,6.13
2023-03-16T02:06:16.198Z,5.78
2023-03-16T02:08:55.465Z,4.78
2023-03-16T02:15:31.339Z,5.53
2023-03-16T02:18:00.400Z,5.40
2023-03-16T02:20:42.910Z,5.57
2023-03-16T02:23:20.275Z,5.10
2023-03-16T02:26:06.358Z,5.82
2023-03-16T02:29:53.729Z,5.22
2023-03-16T02:32:32.230Z,5.43
2023-03-16T02:35:07.843Z,4.93
2023-03-16T02:37:35.763Z,5.15
2023-03-16T02:40:38.021Z,5.03
2023-03-16T02:43:28.223Z,5.68
2023-03-16T02:46:22.230Z,5.22
2023-03-16T02:49:34.424Z,5.00
2023-03-16T02:52:04.810Z,5.03
2023-03-16T02:54:34.992Z,4.65
2023-03-16T02:57:05.141Z,5.35
2023-03-16T02:59:43.027Z,5.82
2023-03-16T03:02:11.617Z,5.60
2023-03-16T03:04:39.486Z,5.32
2023-03-16T03:07:09.875Z,4.90
2023-03-16T03:09:55.225Z,4.53
2023-03-16T03:12:24.173Z,4.03
2023-03-16T03:14:52.838Z,4.78
2023-03-16T03:17:22.057Z,5.00
2023-03-16T03:19:49.735Z,4.72
2023-03-16T03:22:18.808Z,4.75
2023-03-16T03:24:47.763Z,4.00
2023-03-16T03:27:15.158Z,4.75
2023-03-16T03:29:44.796Z,4.38
2023-03-16T03:32:13.622Z,4.85
2023-03-16T03:34:45.197Z,5.00
2023-03-16T03:37:16.746Z,5.28
2023-03-16T03:39:48.360Z,4.82
2023-03-16T03:42:25.139Z,4.47
2023-03-16T03:44:54.279Z,5.25
2023-03-16T03:47:22.985Z,4.82
2023-03-16T03:50:02.290Z,5.28
2023-03-16T03:52:35.859Z,5.53
2023-03-16T03:55:04.371Z,5.07
2023-03-16T03:57:31.997Z,5.15
2023-03-16T04:00:01.823Z,5.85
2023-03-16T04:02:50.146Z,5.88
2023-03-16T04:08:26.846Z,6.60
2023-03-16T04:10:58.169Z,5.93
2023-03-16T04:13:26.841Z,5.65
2023-03-16T04:20:56.628Z,5.55
2023-03-16T04:23:26.032Z,4.93
2023-03-16T04:26:00.632Z,5.45
2023-03-16T04:28:29.274Z,5.20
2023-03-16T04:31:07.402Z,5.07
2023-03-16T04:33:43.914Z,6.90
2023-03-16T04:36:12.771Z,5.85
2023-03-16T04:38:47.497Z,5.18
2023-03-16T04:45:51.246Z,6.20
2023-03-16T04:48:25.940Z,5.57
2023-03-16T04:50:58.674Z,6.10
2023-03-16T04:53:34.723Z,7.32
2023-03-16T04:56:19.792Z,6.57
2023-03-16T04:58:57.160Z,6.10
2023-03-16T05:01:29.682Z,6.13
2023-03-16T05:04:29.174Z,5.97
2023-03-16T05:15:00.656Z,5.68
2023-03-16T05:18:45.634Z,5.50
2023-03-16T05:22:26.783Z,5.82
2023-03-16T05:26:31.846Z,6.18
2023-03-16T05:29:56.061Z,9.45
2023-03-16T05:32:31.504Z,6.07
2023-03-16T05:35:13.617Z,6.50
2023-03-16T05:41:05.715Z,10.77
2023-03-16T05:46:29.517Z,11.70
2023-03-16T05:49:05.841Z,19.08
2023-03-16T05:51:35.376Z,14.88
2023-03-16T05:54:05.833Z,16.50
2023-03-16T05:56:53.740Z,9.25
2023-03-16T05:59:22.753Z,11.85
2023-03-16T06:01:54.560Z,10.75
2023-03-16T06:04:25.693Z,8.90
2023-03-16T06:07:52.240Z,8.98
2023-03-16T06:10:21.511Z,9.10
2023-03-16T06:12:49.288Z,8.98
2023-03-16T06:16:26.345Z,9.52
2023-03-16T06:19:14.691Z,10.43
2023-03-16T06:21:52.033Z,10.77
2023-03-16T06:24:32.588Z,11.05
2023-03-16T06:27:02.336Z,10.02
2023-03-16T06:30:20.358Z,9.93
2023-03-16T06:32:52.619Z,9.85
2023-03-16T06:35:29.234Z,9.80
2023-03-16T06:38:29.000Z,11.00
2023-03-16T06:41:07.721Z,10.07
2023-03-16T06:43:36.971Z,9.18
2023-03-16T06:46:06.024Z,9.30
2023-03-16T06:48:35.780Z,9.93
2023-03-16T06:51:04.677Z,9.80
2023-03-16T06:53:32.879Z,11.75
2023-03-16T06:56:01.485Z,11.65
2023-03-16T06:58:32.388Z,14.90
2023-03-16T07:01:03.971Z,18.13
2023-03-16T07:03:31.618Z,12.88
2023-03-16T07:06:07.014Z,10.45
2023-03-16T07:08:40.624Z,9.52
2023-03-16T07:11:39.775Z,9.00
2023-03-16T07:14:07.712Z,8.52
2023-03-16T07:16:40.166Z,8.35
2023-03-16T07:19:21.114Z,10.10
2023-03-16T07:22:00.233Z,9.38
2023-03-16T07:24:36.521Z,10.13
2023-03-16T07:32:50.394Z,11.80
2023-03-16T07:35:27.285Z,13.43
2023-03-16T07:38:24.748Z,17.33
2023-03-16T07:40:59.153Z,17.15
2023-03-16T07:43:27.092Z,21.13
2023-03-16T07:45:56.813Z,10.73
2023-03-16T07:48:26.253Z,11.90
2023-03-16T07:50:58.068Z,13.30
2023-03-16T07:53:25.626Z,12.70
2023-03-16T07:56:06.768Z,9.57
2023-03-16T07:58:37.539Z,9.80
2023-03-16T08:01:05.470Z,11.05
2023-03-16T08:03:34.737Z,10.02
2023-03-16T08:06:03.655Z,9.30
2023-03-16T08:08:32.381Z,8.88
2023-03-16T08:11:02.697Z,9.15
2023-03-16T08:13:56.855Z,12.80
2023-03-16T08:16:36.827Z,11.45
2023-03-16T08:20:09.420Z,9.45
2023-03-16T08:23:07.311Z,10.60
2023-03-16T08:25:45.667Z,10.38
2023-03-16T08:29:07.893Z,11.02
2023-03-16T08:31:38.483Z,14.18
2023-03-16T08:34:24.699Z,11.32
2023-03-16T08:36:54.313Z,9.43
2023-03-16T08:39:23.260Z,12.82
2023-03-16T08:41:51.269Z,8.38
2023-03-16T08:44:42.746Z,11.85
2023-03-16T08:47:11.056Z,21.42
2023-03-16T08:49:42.050Z,10.93
2023-03-16T08:52:23.178Z,9.27
2023-03-16T09:37:44.950Z,9.25
2023-03-16T09:40:24.894Z,8.18
2023-03-16T09:43:19.123Z,8.20
2023-03-16T09:45:58.776Z,7.00
2023-03-16T09:48:29.516Z,7.28
2023-03-16T09:51:00.097Z,6.72
2023-03-16T09:53:33.630Z,5.60
2023-03-16T09:56:05.157Z,6.63
2023-03-16T09:58:33.185Z,7.28
2023-03-16T10:01:01.050Z,7.18
2023-03-16T10:03:47.149Z,7.45
2023-03-16T10:06:16.380Z,7.03
2023-03-16T10:08:53.203Z,8.48
2023-03-16T10:11:45.188Z,7.35
2023-03-16T10:14:59.748Z,8.93
2023-03-16T10:17:36.655Z,7.15
2023-03-16T10:20:17.764Z,7.25
2023-03-16T10:22:48.161Z,7.57
2023-03-16T10:25:50.051Z,6.15
2023-03-16T10:28:22.344Z,12.45
2023-03-16T10:30:57.059Z,5.30
2023-03-16T10:33:28.024Z,7.05
2023-03-16T10:35:58.409Z,7.95
2023-03-16T10:38:38.984Z,7.82
2023-03-16T10:41:21.623Z,10.85
2023-03-16T10:44:07.880Z,7.85
2023-03-16T10:46:48.846Z,10.30
2023-03-16T10:49:42.328Z,8.23
2023-03-16T10:52:24.073Z,5.95
2023-03-16T10:54:58.505Z,7.10
2023-03-16T10:57:35.150Z,6.78
2023-03-16T11:00:23.523Z,5.85
2023-03-16T11:02:54.500Z,22.13
2023-03-16T11:05:35.150Z,8.75
2023-03-16T11:08:10.790Z,8.23
2023-03-16T11:10:54.691Z,6.72
2023-03-16T11:13:26.502Z,6.80
2023-03-16T11:16:02.859Z,5.95
2023-03-16T11:18:39.294Z,7.57
2023-03-16T11:21:12.869Z,6.28
2023-03-16T11:23:48.674Z,7.28
2023-03-16T11:26:28.200Z,7.65
2023-03-16T11:29:16.042Z,7.15
2023-03-16T11:31:58.034Z,6.57
2023-03-16T11:34:54.560Z,8.02
2023-03-16T11:37:52.904Z,6.72
2023-03-16T11:40:41.432Z,15.60
2023-03-16T11:43:54.033Z,13.20
2023-03-16T11:46:42.367Z,5.70
2023-03-16T11:49:48.343Z,8.43
2023-03-16T11:57:49.593Z,6.40
2023-03-16T12:00:48.012Z,13.32
2023-03-16T12:03:54.918Z,27.90
2023-03-16T12:06:25.997Z,28.23
2023-03-16T12:09:10.978Z,23.15
2023-03-16T12:12:09.998Z,15.45
2023-03-16T12:14:44.645Z,16.45
2023-03-16T12:17:41.060Z,7.90
2023-03-16T12:20:37.377Z,8.27
2023-03-16T12:23:25.716Z,7.47
2023-03-16T12:26:03.726Z,6.55
2023-03-16T12:28:33.657Z,6.10
2023-03-16T12:31:20.167Z,6.32
2023-03-16T12:34:34.837Z,6.13
2023-03-16T12:37:18.544Z,5.57
2023-03-16T12:40:10.650Z,8.15
2023-03-16T12:43:12.045Z,7.93
2023-03-16T12:46:25.373Z,6.55
2023-03-16T12:49:02.824Z,5.88
2023-03-16T12:51:39.016Z,7.70
2023-03-16T12:54:19.347Z,5.97
2023-03-16T12:56:50.862Z,7.65
2023-03-16T12:59:24.094Z,6.65
2023-03-16T13:01:58.771Z,5.97
2023-03-16T13:04:41.714Z,6.20
2023-03-16T13:07:17.568Z,9.38
2023-03-16T13:09:49.650Z,11.77
2023-03-16T13:12:38.426Z,9.40
2023-03-16T13:15:22.435Z,8.55
2023-03-16T13:18:39.321Z,5.32
2023-03-16T13:21:23.131Z,5.50
2023-03-16T13:23:59.008Z,7.10
2023-03-16T13:26:41.207Z,6.82
2023-03-16T13:29:30.311Z,5.72
2023-03-16T13:32:13.905Z,6.43
2023-03-16T13:34:53.914Z,7.18
2023-03-16T13:37:24.649Z,7.70
2023-03-16T13:40:00.714Z,6.15
2023-03-16T13:42:32.898Z,7.10
2023-03-16T13:45:14.568Z,7.13
2023-03-16T13:47:48.424Z,8.32
2023-03-16T13:50:19.603Z,7.25
2023-03-16T13:53:04.045Z,6.13
2023-03-16T13:55:37.389Z,6.70
2023-03-16T13:58:05.837Z,6.55
2023-03-16T14:00:37.930Z,6.40
2023-03-16T14:03:16.422Z,5.88
2023-03-16T14:05:51.903Z,8.82
2023-03-16T14:10:54.700Z,6.60
2023-03-16T14:13:29.276Z,6.45
2023-03-16T14:16:18.495Z,6.88
2023-03-16T14:19:01.185Z,7.13
2023-03-16T14:21:35.939Z,7.80
2023-03-16T14:24:17.829Z,8.20
2023-03-16T14:26:51.178Z,9.18
2023-03-16T14:29:27.689Z,9.88
2023-03-16T14:31:57.237Z,6.22
2023-03-16T14:34:39.934Z,6.50
2023-03-16T14:37:13.821Z,5.05
2023-03-16T14:39:43.700Z,5.60
2023-03-16T14:42:31.720Z,6.20
2023-03-16T14:45:08.805Z,8.25
2023-03-16T14:47:44.184Z,7.38
2023-03-16T14:50:30.065Z,6.47
2023-03-16T14:52:58.608Z,5.70
2023-03-16T14:55:27.245Z,6.88
2023-03-16T14:57:56.320Z,7.88
2023-03-16T15:00:25.676Z,6.32
2023-03-16T15:03:08.430Z,7.07
2023-03-16T15:05:39.172Z,8.25
2023-03-16T15:08:28.783Z,11.00
2023-03-16T15:10:59.868Z,9.45
2023-03-16T15:13:47.115Z,8.68
2023-03-16T15:16:16.073Z,8.60
2023-03-16T15:18:58.405Z,10.18
2023-03-16T15:21:32.709Z,9.23
2023-03-16T15:24:02.993Z,7.43
2023-03-16T15:26:33.648Z,7.00
2023-03-16T15:29:07.011Z,7.22
2023-03-16T15:32:01.009Z,7.97
2023-03-16T15:34:29.273Z,8.40
2023-03-16T15:37:27.262Z,6.40
2023-03-16T15:40:45.814Z,8.90
2023-03-16T15:43:21.000Z,7.80
2023-03-16T15:46:02.363Z,8.27
2023-03-16T15:48:36.376Z,6.47
2023-03-16T15:51:19.063Z,6.75
2023-03-16T15:54:09.736Z,6.38
2023-03-16T15:56:53.797Z,6.20
2023-03-16T15:59:24.941Z,6.75
2023-03-16T16:02:33.361Z,7.50
2023-03-16T16:05:13.398Z,6.45
2023-03-16T16:07:42.368Z,6.35
2023-03-16T16:10:15.022Z,6.50
2023-03-16T16:12:54.790Z,14.52
2023-03-16T16:15:32.768Z,10.38
2023-03-16T16:18:24.104Z,7.15
2023-03-16T16:20:54.164Z,6.90
2023-03-16T16:23:25.984Z,7.60
2023-03-16T16:26:03.024Z,7.35
2023-03-16T16:28:35.668Z,8.45
2023-03-16T16:31:12.796Z,6.82
2023-03-16T16:33:50.609Z,6.90
2023-03-16T16:36:21.523Z,14.23
2023-03-16T16:38:58.273Z,18.77
2023-03-16T16:41:32.986Z,10.55
2023-03-16T16:44:09.121Z,11.43
2023-03-16T16:46:45.578Z,9.95
2023-03-16T16:49:24.690Z,9.47
2023-03-16T16:51:55.660Z,10.20
2023-03-16T16:54:25.828Z,10.73
2023-03-16T16:56:57.425Z,10.55
2023-03-16T16:59:37.968Z,13.02
2023-03-16T17:02:46.307Z,13.18
2023-03-16T17:05:26.505Z,11.48
2023-03-16T17:07:55.489Z,12.40
2023-03-16T17:10:27.269Z,13.70
2023-03-16T17:13:26.823Z,12.27
2023-03-16T17:15:56.598Z,13.15
2023-03-16T17:18:46.625Z,17.27
2023-03-16T17:21:20.015Z,18.27
2023-03-16T17:23:52.992Z,22.33
2023-03-16T17:26:42.867Z,26.75
2023-03-16T17:29:27.285Z,31.48
2023-03-16T17:32:14.692Z,39.25
2023-03-16T17:34:45.709Z,30.50
2023-03-16T17:37:20.910Z,22.88
2023-03-16T17:39:52.126Z,25.63
2023-03-16T17:42:23.718Z,19.23
2023-03-16T17:44:56.575Z,56.30
2023-03-16T17:47:33.359Z,23.08
2023-03-16T17:50:02.723Z,21.20
2023-03-16T17:53:06.957Z,38.13
2023-03-16T17:55:36.845Z,18.45
2023-03-16T17:58:23.299Z,16.42
2023-03-16T18:00:54.357Z,17.20
2023-03-16T18:03:48.180Z,34.47
2023-03-16T18:06:47.041Z,59.63
2023-03-16T18:09:21.430Z,23.67
2023-03-16T18:11:52.305Z,19.88
2023-03-16T18:14:35.264Z,53.47
2023-03-16T18:17:31.089Z,44.75
2023-03-16T18:20:00.549Z,33.40
2023-03-16T18:22:53.501Z,15.95
2023-03-16T18:25:39.311Z,15.27
2023-03-16T18:28:10.086Z,15.55
2023-03-16T18:30:40.072Z,15.95
2023-03-16T18:33:40.557Z,14.70
2023-03-16T18:36:19.595Z,14.40
2023-03-16T18:39:19.068Z,14.75
2023-03-16T18:42:18.272Z,12.88
2023-03-16T18:44:51.258Z,14.52
2023-03-16T18:47:24.262Z,13.50
2023-03-16T18:50:46.046Z,14.75
2023-03-16T18:53:27.764Z,17.52
2023-03-16T19:00:17.899Z,18.08
2023-03-16T19:02:55.635Z,19.67
2023-03-16T19:05:36.859Z,19.85
2023-03-16T19:08:15.133Z,20.45
2023-03-16T19:10:53.445Z,19.75
2023-03-16T19:13:22.639Z,24.13
2023-03-16T19:15:56.110Z,38.63
2023-03-16T19:18:29.689Z,24.70
2023-03-16T19:20:59.127Z,26.50
2023-03-16T19:23:31.046Z,25.40
2023-03-16T19:26:12.164Z,21.80
2023-03-16T19:28:42.993Z,18.98
2023-03-16T19:31:33.797Z,18.70
2023-03-16T19:34:03.394Z,18.83
2023-03-16T19:36:34.319Z,16.48
2023-03-16T19:39:04.512Z,18.58
2023-03-16T19:41:45.036Z,17.33
2023-03-16T19:44:24.218Z,16.73
2023-03-16T19:46:58.574Z,17.08
2023-03-16T19:49:28.373Z,17.20
2023-03-16T19:51:59.027Z,16.55
2023-03-16T19:54:36.130Z,14.27
2023-03-16T19:57:13.921Z,15.05
2023-03-16T19:59:44.652Z,15.13
2023-03-16T20:02:43.449Z,15.82
2023-03-16T20:05:28.242Z,18.17
2023-03-16T20:10:39.272Z,14.20
2023-03-16T20:13:20.720Z,14.80
2023-03-16T20:15:52.910Z,15.45
2023-03-16T20:18:31.347Z,13.07
2023-03-16T20:21:01.139Z,13.60
2023-03-16T20:23:30.288Z,11.57
2023-03-16T20:26:01.969Z,12.60
2023-03-16T20:28:36.380Z,12.15
2023-03-16T20:31:08.762Z,12.60
2023-03-16T20:33:40.031Z,10.95
2023-03-16T20:36:13.501Z,11.82
2023-03-16T20:38:43.796Z,11.60
2023-03-16T20:41:30.209Z,12.35
2023-03-16T20:44:25.790Z,13.40
2023-03-16T20:46:55.555Z,12.77
2023-03-16T20:49:44.111Z,14.52
2023-03-16T20:52:52.813Z,16.90
2023-03-16T20:55:29.581Z,12.77
2023-03-16T20:58:01.708Z,13.05
2023-03-16T21:00:44.330Z,15.30
2023-03-16T21:03:22.895Z,17.75
2023-03-16T21:05:53.240Z,15.38
2023-03-16T21:08:20.828Z,22.20
2023-03-16T21:10:52.697Z,20.35
2023-03-16T21:13:30.250Z,20.83
2023-03-16T21:16:03.739Z,21.55
2023-03-16T21:18:31.501Z,26.77
2023-03-16T21:20:59.877Z,29.20
2023-03-16T21:23:31.513Z,25.27
2023-03-16T21:26:01.695Z,27.13
2023-03-16T21:28:34.778Z,26.65
2023-03-16T21:33:45.858Z,25.45
2023-03-16T21:36:17.845Z,25.17
2023-03-16T21:38:47.418Z,26.85
2023-03-16T21:41:15.582Z,26.70
2023-03-16T21:43:44.717Z,24.85
2023-03-16T21:46:23.324Z,25.23
2023-03-16T21:48:55.101Z,28.50
2023-03-16T21:51:29.184Z,28.42
2023-03-16T21:53:56.756Z,31.30
2023-03-16T21:56:26.265Z,33.38
2023-03-16T21:58:55.014Z,37.58
2023-03-16T22:01:29.707Z,35.28
2023-03-16T22:04:02.987Z,39.40
2023-03-16T22:06:34.102Z,32.35
2023-03-16T22:09:04.305Z,32.08
2023-03-16T22:11:32.847Z,30.20
2023-03-16T22:14:01.199Z,26.25
2023-03-16T22:16:33.619Z,35.25
2023-03-16T22:19:01.402Z,38.25
2023-03-16T22:21:40.684Z,43.47
2023-03-16T22:24:25.085Z,43.33
2023-03-16T22:26:54.489Z,38.25
2023-03-16T22:29:33.647Z,30.95
2023-03-16T22:32:18.865Z,22.83
2023-03-16T22:34:56.261Z,25.30
2023-03-16T22:37:29.147Z,20.95
2023-03-16T22:40:02.490Z,19.38
2023-03-16T22:42:39.981Z,18.92
2023-03-16T22:45:19.177Z,16.48
2023-03-16T22:47:47.961Z,17.00
2023-03-16T22:50:22.077Z,30.67
2023-03-16T22:52:55.145Z,37.42
2023-03-16T22:55:28.636Z,35.67
2023-03-16T22:58:31.117Z,31.42
2023-03-16T23:01:32.004Z,42.72
2023-03-16T23:04:47.800Z,35.80
2023-03-16T23:07:23.223Z,31.10
2023-03-16T23:10:03.497Z,29.25
2023-03-16T23:12:32.461Z,26.55
2023-03-16T23:15:19.321Z,24.20
2023-03-16T23:17:47.346Z,20.52
2023-03-16T23:20:28.687Z,19.25
2023-03-16T23:23:02.822Z,24.10
2023-03-16T23:25:33.579Z,32.05
2023-03-16T23:28:03.004Z,26.35
2023-03-16T23:30:47.990Z,26.17
2023-03-16T23:33:22.310Z,26.88
2023-03-16T23:35:53.475Z,28.27
2023-03-16T23:38:21.581Z,30.25
2023-03-16T23:40:51.440Z,27.20
2023-03-16T23:43:24.892Z,26.27
2023-03-16T23:45:57.684Z,26.50
2023-03-16T23:48:27.058Z,23.55
2023-03-16T23:51:43.786Z,19.33
2023-03-16T23:54:24.793Z,17.42
2023-03-16T23:56:58.050Z,17.63
2023-03-16T23:59:29.236Z,18.52
